Terminal Aerodrome Forecast
Issued by NWS

Home | Current Version | Previous Version | Text Only | Print | Product List | Glossary On
Versions: 1 2 3 4 5 6 7 8 9 10 11 12 13 14 15 16
000
FTUS43 KIND 161725
TAFBMG
TAF
KBMG 161725Z 1618/1718 22011G23KT P6SM SKC
     FM162100 22010KT P6SM SKC
     FM170000 21006KT P6SM FEW250
     FM171400 19006KT P6SM OVC080
     FM171500 19006KT P6SM -SHRA OVC060=

USA.gov is the U.S. government's official web portal to all federal, state and local government web resources and services.